createdAt,value
2018-11-20T00:04:35.782Z,100310.73
2018-11-20T00:10:05.023Z,100292.38
2018-11-20T00:15:17.319Z,100286.99
2018-11-20T00:20:43.313Z,100286.99
2018-11-20T00:26:05.380Z,100284.98
2018-11-20T00:31:21.330Z,100291.23
2018-11-20T00:36:44.690Z,100291.82
2018-11-20T00:42:29.023Z,100285.70
2018-11-20T00:47:55.239Z,100290.36
2018-11-20T00:53:16.365Z,100285.58
2018-11-20T00:58:33.634Z,100282.52
2018-11-20T01:03:55.895Z,100281.59
2018-11-20T01:09:21.395Z,100286.48
2018-11-20T01:14:47.429Z,100275.66
2018-11-20T01:20:19.606Z,100258.84
2018-11-20T01:25:41.454Z,100253.57
2018-11-20T01:31:03.692Z,100239.83
2018-11-20T01:36:42.380Z,100241.02
2018-11-20T01:42:08.259Z,100225.56
2018-11-20T01:47:30.474Z,100214.73
2018-11-20T01:52:52.404Z,100211.86
2018-11-20T01:58:13.007Z,100204.98
2018-11-20T02:03:39.270Z,100192.70
2018-11-20T02:09:02.602Z,100180.72
2018-11-20T02:14:31.459Z,100168.21
2018-11-20T02:20:13.038Z,100168.80
2018-11-20T02:25:31.016Z,100178.81
2018-11-20T02:31:06.216Z,100176.31
2018-11-20T02:36:31.916Z,100173.25
2018-11-20T02:41:54.000Z,100167.70
2018-11-20T02:47:15.975Z,100167.70
2018-11-20T02:52:29.883Z,100174.91
2018-11-20T02:58:08.519Z,100169.72
2018-11-20T03:03:46.986Z,100171.14
2018-11-20T03:09:08.690Z,100169.16
2018-11-20T03:14:30.635Z,100172.81
2018-11-20T03:19:47.769Z,100171.06
2018-11-20T03:25:13.893Z,100178.38
2018-11-20T03:31:14.888Z,100166.77
2018-11-20T03:36:36.934Z,100159.30
2018-11-20T03:41:58.963Z,100148.73
2018-11-20T03:47:10.171Z,100148.73
2018-11-20T03:52:45.389Z,100145.67
2018-11-20T03:58:07.564Z,100151.61
2018-11-20T04:03:42.647Z,100145.37
2018-11-20T04:09:08.591Z,100145.48
2018-11-20T04:14:37.638Z,100142.43
2018-11-20T04:19:51.261Z,100127.76
2018-11-20T04:25:13.220Z,100125.15
2018-11-20T04:31:15.430Z,100128.80
2018-11-20T04:36:37.386Z,100125.75
2018-11-20T04:42:16.022Z,100121.90
2018-11-20T04:47:54.769Z,100123.62
2018-11-20T04:53:23.769Z,100128.13
2018-11-20T04:58:44.653Z,100125.75
2018-11-20T05:04:16.920Z,100129.03
2018-11-20T05:09:52.540Z,100122.98
2018-11-20T05:15:18.616Z,100123.09
2018-11-20T05:20:40.482Z,100119.63
2018-11-20T05:26:03.857Z,100124.14
2018-11-20T05:31:16.844Z,100115.70
2018-11-20T05:36:47.390Z,100110.06
2018-11-20T05:42:10.286Z,100102.57
2018-11-20T05:47:28.139Z,100105.18
2018-11-20T05:52:44.667Z,100105.26
2018-11-20T05:58:04.676Z,100111.23
2018-11-20T06:03:26.684Z,100115.63
2018-11-20T06:08:48.775Z,100110.26
2018-11-20T06:14:10.574Z,100100.11
2018-11-20T06:19:24.019Z,100103.27
2018-11-20T06:24:38.486Z,100103.35
2018-11-20T06:30:37.570Z,100106.23
2018-11-20T06:36:09.055Z,100100.30
2018-11-20T06:41:25.797Z,100091.48
2018-11-20T06:46:46.836Z,100088.91
2018-11-20T06:52:09.352Z,100089.36
2018-11-20T06:57:30.902Z,100097.64
2018-11-20T07:02:53.396Z,100082.12
2018-11-20T07:08:16.364Z,100086.14
2018-11-20T07:13:48.771Z,100088.53
2018-11-20T07:19:09.748Z,100080.10
2018-11-20T07:24:32.308Z,100080.59
2018-11-20T07:29:50.867Z,100074.09
2018-11-20T07:35:22.593Z,100074.09
2018-11-20T07:40:47.884Z,100084.91
2018-11-20T07:46:00.459Z,100085.39
2018-11-20T07:51:28.769Z,100082.73
2018-11-20T07:57:06.324Z,100077.66
2018-11-20T08:02:28.838Z,100070.01
2018-11-20T08:08:09.683Z,100060.77
2018-11-20T08:13:30.851Z,100060.67
2018-11-20T08:18:47.913Z,100053.73
2018-11-20T08:24:12.491Z,100044.37
2018-11-20T08:29:47.330Z,100047.03
2018-11-20T08:35:27.964Z,100037.94
2018-11-20T08:40:43.015Z,100035.83
2018-11-20T08:46:05.545Z,100020.81
2018-11-20T08:51:26.989Z,100020.81
2018-11-20T08:56:52.664Z,100037.23
2018-11-20T09:02:16.784Z,100032.98
2018-11-20T09:07:45.792Z,100020.45
2018-11-20T09:13:00.434Z,100016.85
2018-11-20T09:18:31.819Z,100013.70
2018-11-20T09:23:50.556Z,100006.34
2018-11-20T09:29:13.101Z,100006.66
2018-11-20T09:34:32.237Z,100014.54
2018-11-20T09:40:00.971Z,100006.30
2018-11-20T09:46:20.735Z,100008.84
2018-11-20T09:51:58.441Z,100005.97
2018-11-20T09:57:30.005Z,100020.63
2018-11-20T10:02:51.556Z,100010.07
2018-11-20T10:08:05.720Z,100008.44
2018-11-20T10:13:29.811Z,100000.41
2018-11-20T10:18:49.119Z,99988.79
2018-11-20T10:24:30.231Z,99971.75
2018-11-20T10:29:51.123Z,99972.30
2018-11-20T10:35:31.969Z,99974.83
2018-11-20T10:40:55.718Z,99967.52
2018-11-20T10:46:30.995Z,99963.30
2018-11-20T10:51:53.528Z,99959.18
2018-11-20T10:57:15.237Z,99962.42
2018-11-20T11:02:36.595Z,99981.31
2018-11-20T11:07:58.151Z,99979.98
2018-11-20T11:13:12.317Z,99977.47
2018-11-20T11:18:31.361Z,99969.41
2018-11-20T11:23:52.547Z,99965.13
2018-11-20T11:29:27.083Z,99972.78
2018-11-20T11:34:48.572Z,99959.07
2018-11-20T11:40:17.220Z,99949.30
2018-11-20T11:45:47.383Z,99936.73
2018-11-20T11:51:11.136Z,99938.32
2018-11-20T11:56:32.073Z,99938.16
2018-11-20T12:07:30.317Z,99907.91
2018-11-20T12:12:52.842Z,99905.88
2018-11-20T12:18:18.267Z,99896.19
2018-11-20T12:23:40.828Z,99897.28
2018-11-20T12:29:06.277Z,99876.33
2018-11-20T12:34:37.865Z,99849.13
2018-11-20T12:39:59.915Z,99846.61
2018-11-20T12:45:21.143Z,99840.25
2018-11-20T12:50:46.974Z,99839.44
2018-11-20T12:56:07.885Z,99828.00
2018-11-20T13:01:36.460Z,99830.03
2018-11-20T13:07:00.665Z,99828.19
2018-11-20T13:12:21.415Z,99820.08
2018-11-20T13:17:46.952Z,99815.45
2018-11-20T13:23:15.246Z,99808.23
2018-11-20T13:28:41.482Z,99809.02
2018-11-20T13:34:02.604Z,99813.16
2018-11-20T13:39:30.561Z,99810.19
2018-11-20T13:44:57.275Z,99827.10
2018-11-20T13:50:17.361Z,99827.95
2018-11-20T13:55:38.877Z,99830.20
2018-11-20T14:01:13.844Z,99837.03
2018-11-20T14:06:39.622Z,99834.34
2018-11-20T14:12:00.710Z,99844.48
2018-11-20T14:17:32.035Z,99823.98
2018-11-20T14:22:57.622Z,99824.45
2018-11-20T14:28:38.495Z,99816.41
2018-11-20T14:34:01.018Z,99820.95
2018-11-20T14:39:22.447Z,99807.45
2018-11-20T14:44:43.788Z,99802.69
2018-11-20T14:50:24.935Z,99802.49
2018-11-20T14:55:44.024Z,99809.66
2018-11-20T15:01:05.435Z,99824.02
2018-11-20T15:06:26.953Z,99824.51
2018-11-20T15:11:48.012Z,99823.64
2018-11-20T15:17:28.968Z,99833.50
2018-11-20T15:22:57.353Z,99835.83
2018-11-20T15:28:38.104Z,99854.81
2018-11-20T15:34:03.640Z,99862.78
2018-11-20T15:39:15.190Z,99873.50
2018-11-20T15:44:36.984Z,99873.16
2018-11-20T15:49:58.789Z,99865.73
2018-11-20T15:55:21.313Z,99863.66
2018-11-20T16:00:50.343Z,99862.31
2018-11-20T16:06:18.924Z,99852.36
2018-11-20T16:11:40.355Z,99851.48
2018-11-20T16:17:05.553Z,99843.86
2018-11-20T16:22:27.108Z,99850.84
2018-11-20T16:27:48.362Z,99852.59
2018-11-20T16:33:25.829Z,99856.69
2018-11-20T16:38:46.884Z,99862.46
2018-11-20T16:44:08.452Z,99873.22
2018-11-20T16:49:41.845Z,99878.36
2018-11-20T16:55:04.371Z,99885.16
2018-11-20T17:00:36.906Z,99885.14
2018-11-20T17:06:08.748Z,99883.05
2018-11-20T17:11:30.192Z,99893.92
2018-11-20T17:16:52.758Z,99902.05
2018-11-20T17:22:14.036Z,99905.41
2018-11-20T17:27:54.496Z,99907.77
2018-11-20T17:33:26.280Z,99916.70
2018-11-20T17:39:01.172Z,99908.23
2018-11-20T17:44:16.833Z,99924.62
2018-11-20T17:49:48.512Z,99914.38
2018-11-20T17:55:03.147Z,99912.89
2018-11-20T18:00:26.807Z,99917.66
2018-11-20T18:05:54.543Z,99921.99
2018-11-20T18:11:12.501Z,99929.92
2018-11-20T18:16:26.760Z,99932.38
2018-11-20T18:21:46.703Z,99931.27
2018-11-20T18:27:08.948Z,99926.91
2018-11-20T18:32:30.431Z,99923.95
2018-11-20T18:37:50.962Z,99924.42
2018-11-20T18:43:08.431Z,99926.97
2018-11-20T18:48:42.949Z,99923.78
2018-11-20T18:54:23.892Z,99927.09
2018-11-20T18:59:49.483Z,99938.06
2018-11-20T19:05:10.792Z,99935.55
2018-11-20T19:10:32.082Z,99931.00
2018-11-20T19:15:54.615Z,99934.66
2018-11-20T19:21:15.674Z,99940.53
2018-11-20T19:26:50.496Z,99943.38
2018-11-20T19:32:21.716Z,99946.45
2018-11-20T19:37:53.542Z,99954.87
2018-11-20T19:43:09.152Z,99960.52
2018-11-20T19:48:37.872Z,99958.72
2018-11-20T19:54:15.791Z,99974.47
2018-11-20T19:59:56.340Z,99975.95
2018-11-20T20:05:18.860Z,99985.27
2018-11-20T20:10:39.769Z,99990.33
2018-11-20T20:16:01.417Z,99992.92
2018-11-20T20:21:22.885Z,100004.50
2018-11-20T20:26:57.478Z,99986.66
2018-11-20T20:32:09.692Z,99999.17
2018-11-20T20:37:38.888Z,100010.15
2018-11-20T20:43:05.049Z,100016.39
2018-11-20T20:48:35.863Z,100015.62
2018-11-20T20:53:54.012Z,100026.75
2018-11-20T20:59:19.398Z,100025.01
2018-11-20T21:04:51.599Z,100024.64
2018-11-20T21:10:14.390Z,100031.17
2018-11-20T21:15:42.680Z,100034.96
2018-11-20T21:21:15.577Z,100029.33
2018-11-20T21:26:33.104Z,100033.13
2018-11-20T21:31:45.839Z,100044.63
2018-11-20T21:37:07.715Z,100052.41
2018-11-20T21:42:36.702Z,100049.84
2018-11-20T21:48:14.660Z,100059.39
2018-11-20T21:53:36.123Z,100063.02
2018-11-20T21:59:10.559Z,100059.75
2018-11-20T22:04:33.109Z,100065.99
2018-11-20T22:09:54.836Z,100066.08
2018-11-20T22:15:21.376Z,100065.62
2018-11-20T22:20:48.230Z,100079.94
2018-11-20T22:26:09.432Z,100090.78
2018-11-20T22:31:47.113Z,100086.27
2018-11-20T22:37:21.675Z,100081.60
2018-11-20T22:42:50.431Z,100088.22
2018-11-20T22:48:15.841Z,100090.73
2018-11-20T22:53:50.535Z,100086.45
2018-11-20T22:59:09.807Z,100093.34
2018-11-20T23:04:41.585Z,100091.59
2018-11-20T23:09:45.039Z,100102.04
2018-11-20T23:14:48.581Z,100104.31
2018-11-20T23:19:52.052Z,100112.92
2018-11-20T23:24:55.701Z,100116.79
2018-11-20T23:29:59.472Z,100114.41
2018-11-20T23:35:03.121Z,100116.25
2018-11-20T23:40:07.640Z,100115.30
2018-11-20T23:45:13.328Z,100128.36
2018-11-20T23:50:16.809Z,100120.20
2018-11-20T23:55:20.258Z,100117.70
